sensor_id;sensor_type;location;lat;lon;timestamp;temperature;humidity
29729;DHT22;20055;51.498;11.960;2022-07-06T00:01:48;17.70;99.90
29729;DHT22;20055;51.498;11.960;2022-07-06T00:04:15;17.60;99.90
29729;DHT22;20055;51.498;11.960;2022-07-06T00:06:42;17.60;99.90
29729;DHT22;20055;51.498;11.960;2022-07-06T00:09:08;17.50;99.90
29729;DHT22;20055;51.498;11.960;2022-07-06T00:11:34;17.50;99.90
29729;DHT22;20055;51.498;11.960;2022-07-06T00:14:01;17.40;99.90
29729;DHT22;20055;51.498;11.960;2022-07-06T00:16:27;17.40;99.90
29729;DHT22;20055;51.498;11.960;2022-07-06T00:18:54;17.40;99.90
29729;DHT22;20055;51.498;11.960;2022-07-06T00:21:21;17.40;99.90
29729;DHT22;20055;51.498;11.960;2022-07-06T00:23:47;17.40;99.90
29729;DHT22;20055;51.498;11.960;2022-07-06T00:26:14;17.30;99.90
29729;DHT22;20055;51.498;11.960;2022-07-06T00:28:40;17.30;99.90
29729;DHT22;20055;51.498;11.960;2022-07-06T00:31:06;17.20;99.90
29729;DHT22;20055;51.498;11.960;2022-07-06T00:33:33;17.20;99.90
29729;DHT22;20055;51.498;11.960;2022-07-06T00:35:59;17.20;99.90
29729;DHT22;20055;51.498;11.960;2022-07-06T00:38:25;17.20;99.90
29729;DHT22;20055;51.498;11.960;2022-07-06T00:40:51;17.20;99.90
29729;DHT22;20055;51.498;11.960;2022-07-06T00:43:18;17.20;99.90
29729;DHT22;20055;51.498;11.960;2022-07-06T00:45:44;17.20;99.90
29729;DHT22;20055;51.498;11.960;2022-07-06T00:48:10;17.20;99.90
29729;DHT22;20055;51.498;11.960;2022-07-06T00:50:38;17.20;99.90
29729;DHT22;20055;51.498;11.960;2022-07-06T00:53:06;17.20;99.90
29729;DHT22;20055;51.498;11.960;2022-07-06T00:55:35;17.20;99.90
29729;DHT22;20055;51.498;11.960;2022-07-06T00:58:03;17.20;99.90
29729;DHT22;20055;51.498;11.960;2022-07-06T01:00:31;17.10;99.90
29729;DHT22;20055;51.498;11.960;2022-07-06T01:02:57;17.10;99.90
29729;DHT22;20055;51.498;11.960;2022-07-06T01:05:24;17.00;99.90
29729;DHT22;20055;51.498;11.960;2022-07-06T01:07:51;16.90;99.90
29729;DHT22;20055;51.498;11.960;2022-07-06T01:10:19;16.90;99.90
29729;DHT22;20055;51.498;11.960;2022-07-06T01:12:47;16.90;99.90
29729;DHT22;20055;51.498;11.960;2022-07-06T01:15:20;16.90;99.90
29729;DHT22;20055;51.498;11.960;2022-07-06T01:17:47;16.80;99.90
29729;DHT22;20055;51.498;11.960;2022-07-06T01:20:21;16.70;99.90
29729;DHT22;20055;51.498;11.960;2022-07-06T01:22:49;16.70;99.90
29729;DHT22;20055;51.498;11.960;2022-07-06T01:25:16;16.70;99.90
29729;DHT22;20055;51.498;11.960;2022-07-06T01:27:43;16.60;99.90
29729;DHT22;20055;51.498;11.960;2022-07-06T01:30:12;16.60;99.90
29729;DHT22;20055;51.498;11.960;2022-07-06T01:32:39;16.50;99.90
29729;DHT22;20055;51.498;11.960;2022-07-06T01:35:07;16.50;99.90
29729;DHT22;20055;51.498;11.960;2022-07-06T01:37:35;16.50;99.90
29729;DHT22;20055;51.498;11.960;2022-07-06T01:40:03;16.50;99.90
29729;DHT22;20055;51.498;11.960;2022-07-06T01:42:30;16.50;99.90
29729;DHT22;20055;51.498;11.960;2022-07-06T01:44:57;16.50;99.90
29729;DHT22;20055;51.498;11.960;2022-07-06T01:47:23;16.50;99.90
29729;DHT22;20055;51.498;11.960;2022-07-06T01:49:51;16.40;99.90
29729;DHT22;20055;51.498;11.960;2022-07-06T01:52:18;16.40;99.90
29729;DHT22;20055;51.498;11.960;2022-07-06T01:54:44;16.30;99.90
29729;DHT22;20055;51.498;11.960;2022-07-06T01:57:11;16.30;99.90
29729;DHT22;20055;51.498;11.960;2022-07-06T01:59:38;16.30;99.90
29729;DHT22;20055;51.498;11.960;2022-07-06T02:02:04;16.30;99.90
29729;DHT22;20055;51.498;11.960;2022-07-06T02:04:30;16.30;99.90
29729;DHT22;20055;51.498;11.960;2022-07-06T02:06:57;16.30;99.90
29729;DHT22;20055;51.498;11.960;2022-07-06T02:09:24;16.20;99.90
29729;DHT22;20055;51.498;11.960;2022-07-06T02:11:50;16.20;99.90
29729;DHT22;20055;51.498;11.960;2022-07-06T02:14:16;16.20;99.90
29729;DHT22;20055;51.498;11.960;2022-07-06T02:16:43;16.10;99.90
29729;DHT22;20055;51.498;11.960;2022-07-06T02:19:09;16.10;99.90
29729;DHT22;20055;51.498;11.960;2022-07-06T02:21:35;16.10;99.90
29729;DHT22;20055;51.498;11.960;2022-07-06T02:24:02;16.20;99.90
29729;DHT22;20055;51.498;11.960;2022-07-06T02:26:29;16.20;99.90
29729;DHT22;20055;51.498;11.960;2022-07-06T02:28:56;16.10;99.90
29729;DHT22;20055;51.498;11.960;2022-07-06T02:31:23;16.10;99.90
29729;DHT22;20055;51.498;11.960;2022-07-06T02:33:49;16.00;99.90
29729;DHT22;20055;51.498;11.960;2022-07-06T02:36:15;15.90;99.90
29729;DHT22;20055;51.498;11.960;2022-07-06T02:38:43;15.90;99.90
29729;DHT22;20055;51.498;11.960;2022-07-06T02:41:09;15.90;99.90
29729;DHT22;20055;51.498;11.960;2022-07-06T02:43:37;15.90;99.90
29729;DHT22;20055;51.498;11.960;2022-07-06T02:46:05;15.90;99.90
29729;DHT22;20055;51.498;11.960;2022-07-06T02:48:31;15.80;99.90
29729;DHT22;20055;51.498;11.960;2022-07-06T02:50:57;15.80;99.90
29729;DHT22;20055;51.498;11.960;2022-07-06T02:53:25;15.80;99.90
29729;DHT22;20055;51.498;11.960;2022-07-06T02:55:53;15.70;99.90
29729;DHT22;20055;51.498;11.960;2022-07-06T02:58:20;15.70;99.90
29729;DHT22;20055;51.498;11.960;2022-07-06T03:00:46;15.70;99.90
29729;DHT22;20055;51.498;11.960;2022-07-06T03:03:13;15.70;99.90
29729;DHT22;20055;51.498;11.960;2022-07-06T03:05:39;15.70;99.90
29729;DHT22;20055;51.498;11.960;2022-07-06T03:08:05;15.70;99.90
29729;DHT22;20055;51.498;11.960;2022-07-06T03:10:32;15.60;99.90
29729;DHT22;20055;51.498;11.960;2022-07-06T03:12:58;15.60;99.90
29729;DHT22;20055;51.498;11.960;2022-07-06T03:15:24;15.60;99.90
29729;DHT22;20055;51.498;11.960;2022-07-06T03:17:50;15.60;99.90
29729;DHT22;20055;51.498;11.960;2022-07-06T03:20:19;15.60;99.90
29729;DHT22;20055;51.498;11.960;2022-07-06T03:22:46;15.60;99.90
29729;DHT22;20055;51.498;11.960;2022-07-06T03:25:14;15.70;99.90
29729;DHT22;20055;51.498;11.960;2022-07-06T03:27:41;15.70;99.90
29729;DHT22;20055;51.498;11.960;2022-07-06T03:30:09;15.70;99.90
29729;DHT22;20055;51.498;11.960;2022-07-06T03:32:35;15.70;99.90
29729;DHT22;20055;51.498;11.960;2022-07-06T03:35:05;15.70;99.90
29729;DHT22;20055;51.498;11.960;2022-07-06T03:37:33;15.70;99.90
29729;DHT22;20055;51.498;11.960;2022-07-06T03:39:59;16.00;99.90
29729;DHT22;20055;51.498;11.960;2022-07-06T03:42:26;16.40;99.90
29729;DHT22;20055;51.498;11.960;2022-07-06T03:44:52;16.70;99.90
29729;DHT22;20055;51.498;11.960;2022-07-06T03:47:18;16.90;99.90
29729;DHT22;20055;51.498;11.960;2022-07-06T03:49:45;17.00;99.90
29729;DHT22;20055;51.498;11.960;2022-07-06T03:52:11;17.10;99.90
29729;DHT22;20055;51.498;11.960;2022-07-06T03:54:44;17.20;99.90
29729;DHT22;20055;51.498;11.960;2022-07-06T03:57:13;17.30;99.90
29729;DHT22;20055;51.498;11.960;2022-07-06T03:59:40;17.30;99.90
29729;DHT22;20055;51.498;11.960;2022-07-06T04:02:06;17.40;99.90
29729;DHT22;20055;51.498;11.960;2022-07-06T04:04:33;17.50;99.90
29729;DHT22;20055;51.498;11.960;2022-07-06T04:07:00;17.70;99.90
29729;DHT22;20055;51.498;11.960;2022-07-06T04:09:27;17.60;99.90
29729;DHT22;20055;51.498;11.960;2022-07-06T04:11:53;17.70;99.90
29729;DHT22;20055;51.498;11.960;2022-07-06T04:14:20;17.60;99.90
29729;DHT22;20055;51.498;11.960;2022-07-06T04:16:47;17.60;99.90
29729;DHT22;20055;51.498;11.960;2022-07-06T04:19:14;17.60;99.90
29729;DHT22;20055;51.498;11.960;2022-07-06T04:21:40;17.50;99.90
29729;DHT22;20055;51.498;11.960;2022-07-06T04:24:07;17.50;99.90
29729;DHT22;20055;51.498;11.960;2022-07-06T04:26:34;17.40;99.90
29729;DHT22;20055;51.498;11.960;2022-07-06T04:29:01;17.50;99.90
29729;DHT22;20055;51.498;11.960;2022-07-06T04:31:28;17.50;99.90
29729;DHT22;20055;51.498;11.960;2022-07-06T04:33:55;17.50;99.90
29729;DHT22;20055;51.498;11.960;2022-07-06T04:36:22;17.50;99.90
29729;DHT22;20055;51.498;11.960;2022-07-06T04:38:48;17.50;99.90
29729;DHT22;20055;51.498;11.960;2022-07-06T04:41:16;17.30;99.90
29729;DHT22;20055;51.498;11.960;2022-07-06T04:43:42;17.00;99.90
29729;DHT22;20055;51.498;11.960;2022-07-06T04:46:11;16.80;99.90
29729;DHT22;20055;51.498;11.960;2022-07-06T04:48:40;16.80;99.90
29729;DHT22;20055;51.498;11.960;2022-07-06T04:51:11;16.60;99.90
29729;DHT22;20055;51.498;11.960;2022-07-06T04:53:37;16.60;99.90
29729;DHT22;20055;51.498;11.960;2022-07-06T04:56:04;16.60;99.90
29729;DHT22;20055;51.498;11.960;2022-07-06T04:58:32;16.60;99.90
29729;DHT22;20055;51.498;11.960;2022-07-06T05:00:58;17.10;99.90
29729;DHT22;20055;51.498;11.960;2022-07-06T05:03:26;17.20;99.90
29729;DHT22;20055;51.498;11.960;2022-07-06T05:05:53;18.30;99.90
29729;DHT22;20055;51.498;11.960;2022-07-06T05:08:20;19.60;99.90
29729;DHT22;20055;51.498;11.960;2022-07-06T05:10:48;20.30;99.90
29729;DHT22;20055;51.498;11.960;2022-07-06T05:13:15;20.60;99.90
29729;DHT22;20055;51.498;11.960;2022-07-06T05:15:42;20.90;99.90
29729;DHT22;20055;51.498;11.960;2022-07-06T05:18:08;21.80;99.70
29729;DHT22;20055;51.498;11.960;2022-07-06T05:20:35;21.60;99.50
29729;DHT22;20055;51.498;11.960;2022-07-06T05:23:01;21.00;99.60
29729;DHT22;20055;51.498;11.960;2022-07-06T05:25:30;19.90;99.90
29729;DHT22;20055;51.498;11.960;2022-07-06T05:27:58;18.50;99.90
29729;DHT22;20055;51.498;11.960;2022-07-06T05:30:25;17.60;99.90
29729;DHT22;20055;51.498;11.960;2022-07-06T05:32:52;17.30;99.90
29729;DHT22;20055;51.498;11.960;2022-07-06T05:35:19;17.30;99.90
29729;DHT22;20055;51.498;11.960;2022-07-06T05:37:45;17.30;99.90
29729;DHT22;20055;51.498;11.960;2022-07-06T05:40:12;17.10;99.90
29729;DHT22;20055;51.498;11.960;2022-07-06T05:42:38;17.20;99.90
29729;DHT22;20055;51.498;11.960;2022-07-06T05:45:05;17.40;99.90
29729;DHT22;20055;51.498;11.960;2022-07-06T05:47:32;17.40;99.90
29729;DHT22;20055;51.498;11.960;2022-07-06T05:50:18;17.40;99.90
29729;DHT22;20055;51.498;11.960;2022-07-06T05:52:58;17.40;99.90
29729;DHT22;20055;51.498;11.960;2022-07-06T05:55:25;17.30;99.90
29729;DHT22;20055;51.498;11.960;2022-07-06T05:57:53;17.30;99.90
29729;DHT22;20055;51.498;11.960;2022-07-06T06:00:24;17.30;99.90
29729;DHT22;20055;51.498;11.960;2022-07-06T06:02:53;17.30;99.90
29729;DHT22;20055;51.498;11.960;2022-07-06T06:05:21;17.10;99.90
29729;DHT22;20055;51.498;11.960;2022-07-06T06:07:49;17.20;99.90
29729;DHT22;20055;51.498;11.960;2022-07-06T06:10:19;17.20;99.90
29729;DHT22;20055;51.498;11.960;2022-07-06T06:12:49;17.20;99.90
29729;DHT22;20055;51.498;11.960;2022-07-06T06:15:16;17.10;99.90
29729;DHT22;20055;51.498;11.960;2022-07-06T06:17:43;16.90;99.90
29729;DHT22;20055;51.498;11.960;2022-07-06T06:20:11;16.90;99.90
29729;DHT22;20055;51.498;11.960;2022-07-06T06:25:10;17.20;99.90
29729;DHT22;20055;51.498;11.960;2022-07-06T06:27:37;17.40;99.90
29729;DHT22;20055;51.498;11.960;2022-07-06T06:30:03;17.40;99.90
29729;DHT22;20055;51.498;11.960;2022-07-06T06:32:30;17.50;99.90
29729;DHT22;20055;51.498;11.960;2022-07-06T06:34:56;17.50;99.90
29729;DHT22;20055;51.498;11.960;2022-07-06T06:37:22;17.40;99.90
29729;DHT22;20055;51.498;11.960;2022-07-06T06:39:48;17.60;99.90
29729;DHT22;20055;51.498;11.960;2022-07-06T06:42:15;17.70;99.90
29729;DHT22;20055;51.498;11.960;2022-07-06T06:44:42;17.50;99.90
29729;DHT22;20055;51.498;11.960;2022-07-06T06:47:08;17.50;99.90
29729;DHT22;20055;51.498;11.960;2022-07-06T06:49:34;17.60;99.90
29729;DHT22;20055;51.498;11.960;2022-07-06T06:52:01;17.80;99.90
29729;DHT22;20055;51.498;11.960;2022-07-06T06:54:27;17.80;99.90
29729;DHT22;20055;51.498;11.960;2022-07-06T06:56:53;17.80;99.90
29729;DHT22;20055;51.498;11.960;2022-07-06T06:59:19;18.00;99.90
29729;DHT22;20055;51.498;11.960;2022-07-06T07:01:46;18.20;99.90
29729;DHT22;20055;51.498;11.960;2022-07-06T07:04:12;18.30;99.90
29729;DHT22;20055;51.498;11.960;2022-07-06T07:06:39;18.40;99.90
29729;DHT22;20055;51.498;11.960;2022-07-06T07:09:05;18.40;99.90
29729;DHT22;20055;51.498;11.960;2022-07-06T07:11:31;18.40;99.90
29729;DHT22;20055;51.498;11.960;2022-07-06T07:13:57;18.40;99.70
29729;DHT22;20055;51.498;11.960;2022-07-06T07:16:26;18.20;99.70
29729;DHT22;20055;51.498;11.960;2022-07-06T07:18:52;18.30;99.90
29729;DHT22;20055;51.498;11.960;2022-07-06T07:21:20;18.30;99.90
29729;DHT22;20055;51.498;11.960;2022-07-06T07:23:46;18.50;99.90
29729;DHT22;20055;51.498;11.960;2022-07-06T07:26:12;18.40;99.90
29729;DHT22;20055;51.498;11.960;2022-07-06T07:28:38;18.40;99.90
29729;DHT22;20055;51.498;11.960;2022-07-06T07:31:04;18.50;99.90
29729;DHT22;20055;51.498;11.960;2022-07-06T07:33:31;18.60;99.90
29729;DHT22;20055;51.498;11.960;2022-07-06T07:35:57;19.10;99.60
29729;DHT22;20055;51.498;11.960;2022-07-06T07:38:23;19.20;99.40
29729;DHT22;20055;51.498;11.960;2022-07-06T07:40:50;19.50;99.10
29729;DHT22;20055;51.498;11.960;2022-07-06T07:43:16;19.60;98.70
29729;DHT22;20055;51.498;11.960;2022-07-06T07:45:42;20.00;98.20
29729;DHT22;20055;51.498;11.960;2022-07-06T07:48:08;20.00;97.90
29729;DHT22;20055;51.498;11.960;2022-07-06T07:50:35;20.20;97.20
29729;DHT22;20055;51.498;11.960;2022-07-06T07:53:01;20.00;96.40
29729;DHT22;20055;51.498;11.960;2022-07-06T07:55:28;19.70;95.90
29729;DHT22;20055;51.498;11.960;2022-07-06T07:57:54;19.10;95.70
29729;DHT22;20055;51.498;11.960;2022-07-06T08:00:20;18.70;96.60
29729;DHT22;20055;51.498;11.960;2022-07-06T08:02:47;18.60;97.30
29729;DHT22;20055;51.498;11.960;2022-07-06T08:05:14;18.90;96.30
29729;DHT22;20055;51.498;11.960;2022-07-06T08:07:42;19.30;95.50
29729;DHT22;20055;51.498;11.960;2022-07-06T08:10:09;19.40;95.20
29729;DHT22;20055;51.498;11.960;2022-07-06T08:12:36;19.20;94.50
29729;DHT22;20055;51.498;11.960;2022-07-06T08:15:04;19.40;94.50
29729;DHT22;20055;51.498;11.960;2022-07-06T08:17:30;19.10;94.30
29729;DHT22;20055;51.498;11.960;2022-07-06T08:19:57;18.90;93.60
29729;DHT22;20055;51.498;11.960;2022-07-06T08:22:23;18.70;93.60
29729;DHT22;20055;51.498;11.960;2022-07-06T08:24:49;18.80;93.70
29729;DHT22;20055;51.498;11.960;2022-07-06T08:27:16;18.90;93.60
29729;DHT22;20055;51.498;11.960;2022-07-06T08:29:42;19.20;93.50
29729;DHT22;20055;51.498;11.960;2022-07-06T08:32:09;19.30;93.20
29729;DHT22;20055;51.498;11.960;2022-07-06T08:34:35;19.60;92.90
29729;DHT22;20055;51.498;11.960;2022-07-06T08:37:01;19.70;92.70
29729;DHT22;20055;51.498;11.960;2022-07-06T08:39:27;20.00;92.10
29729;DHT22;20055;51.498;11.960;2022-07-06T08:41:55;20.10;91.70
29729;DHT22;20055;51.498;11.960;2022-07-06T08:44:23;19.80;92.00
29729;DHT22;20055;51.498;11.960;2022-07-06T08:46:52;19.40;93.10
29729;DHT22;20055;51.498;11.960;2022-07-06T08:49:18;19.20;93.80
29729;DHT22;20055;51.498;11.960;2022-07-06T08:51:46;19.50;92.90
29729;DHT22;20055;51.498;11.960;2022-07-06T08:54:14;19.50;92.70
29729;DHT22;20055;51.498;11.960;2022-07-06T08:56:41;19.40;92.80
29729;DHT22;20055;51.498;11.960;2022-07-06T08:59:07;19.30;93.00
29729;DHT22;20055;51.498;11.960;2022-07-06T09:01:35;19.30;93.20
29729;DHT22;20055;51.498;11.960;2022-07-06T09:04:04;19.30;93.00
29729;DHT22;20055;51.498;11.960;2022-07-06T09:06:31;19.20;93.60
29729;DHT22;20055;51.498;11.960;2022-07-06T09:08:58;19.40;93.50
29729;DHT22;20055;51.498;11.960;2022-07-06T09:11:26;19.10;93.20
29729;DHT22;20055;51.498;11.960;2022-07-06T09:13:52;19.20;93.00
29729;DHT22;20055;51.498;11.960;2022-07-06T09:16:28;19.40;92.80
29729;DHT22;20055;51.498;11.960;2022-07-06T09:18:55;19.50;91.40
29729;DHT22;20055;51.498;11.960;2022-07-06T09:21:25;19.40;91.30
29729;DHT22;20055;51.498;11.960;2022-07-06T09:23:56;19.60;90.70
29729;DHT22;20055;51.498;11.960;2022-07-06T09:26:24;19.50;90.60
29729;DHT22;20055;51.498;11.960;2022-07-06T09:28:50;19.30;90.80
29729;DHT22;20055;51.498;11.960;2022-07-06T09:31:17;19.30;91.00
29729;DHT22;20055;51.498;11.960;2022-07-06T09:34:01;19.60;90.80
29729;DHT22;20055;51.498;11.960;2022-07-06T09:39:28;19.40;90.40
29729;DHT22;20055;51.498;11.960;2022-07-06T09:41:57;19.40;90.40
29729;DHT22;20055;51.498;11.960;2022-07-06T09:44:31;19.70;90.00
29729;DHT22;20055;51.498;11.960;2022-07-06T09:47:00;19.70;89.50
29729;DHT22;20055;51.498;11.960;2022-07-06T09:49:27;19.60;89.70
29729;DHT22;20055;51.498;11.960;2022-07-06T09:51:56;19.90;88.30
29729;DHT22;20055;51.498;11.960;2022-07-06T09:54:23;20.40;87.90
29729;DHT22;20055;51.498;11.960;2022-07-06T09:56:50;20.30;85.90
29729;DHT22;20055;51.498;11.960;2022-07-06T09:59:22;20.30;86.20
29729;DHT22;20055;51.498;11.960;2022-07-06T10:01:52;20.10;85.20
29729;DHT22;20055;51.498;11.960;2022-07-06T10:04:18;20.00;84.70
29729;DHT22;20055;51.498;11.960;2022-07-06T10:06:47;19.90;84.80
29729;DHT22;20055;51.498;11.960;2022-07-06T10:09:14;19.90;84.00
29729;DHT22;20055;51.498;11.960;2022-07-06T10:11:45;20.20;84.10
29729;DHT22;20055;51.498;11.960;2022-07-06T10:14:17;20.30;82.80
29729;DHT22;20055;51.498;11.960;2022-07-06T10:16:45;20.40;82.10
29729;DHT22;20055;51.498;11.960;2022-07-06T10:19:13;20.70;82.00
29729;DHT22;20055;51.498;11.960;2022-07-06T10:21:40;20.80;81.30
29729;DHT22;20055;51.498;11.960;2022-07-06T10:24:08;20.40;81.90
29729;DHT22;20055;51.498;11.960;2022-07-06T10:26:35;20.40;81.90
29729;DHT22;20055;51.498;11.960;2022-07-06T10:29:03;21.00;80.50
29729;DHT22;20055;51.498;11.960;2022-07-06T10:31:31;21.70;79.40
29729;DHT22;20055;51.498;11.960;2022-07-06T10:34:00;21.00;78.00
29729;DHT22;20055;51.498;11.960;2022-07-06T10:36:28;20.30;80.90
29729;DHT22;20055;51.498;11.960;2022-07-06T10:38:54;20.00;81.30
29729;DHT22;20055;51.498;11.960;2022-07-06T10:41:34;20.00;81.60
29729;DHT22;20055;51.498;11.960;2022-07-06T10:44:21;19.80;80.90
29729;DHT22;20055;51.498;11.960;2022-07-06T10:46:55;20.20;80.50
29729;DHT22;20055;51.498;11.960;2022-07-06T10:49:23;20.30;80.10
29729;DHT22;20055;51.498;11.960;2022-07-06T10:51:50;20.40;79.60
29729;DHT22;20055;51.498;11.960;2022-07-06T10:54:18;20.30;79.50
29729;DHT22;20055;51.498;11.960;2022-07-06T10:56:49;20.40;79.70
29729;DHT22;20055;51.498;11.960;2022-07-06T10:59:23;20.50;79.90
29729;DHT22;20055;51.498;11.960;2022-07-06T11:02:12;20.40;79.30
29729;DHT22;20055;51.498;11.960;2022-07-06T11:04:39;20.20;79.60
29729;DHT22;20055;51.498;11.960;2022-07-06T11:07:10;20.40;80.00
29729;DHT22;20055;51.498;11.960;2022-07-06T11:09:37;20.30;79.70
29729;DHT22;20055;51.498;11.960;2022-07-06T11:12:19;20.30;79.40
29729;DHT22;20055;51.498;11.960;2022-07-06T11:14:47;20.60;79.50
29729;DHT22;20055;51.498;11.960;2022-07-06T11:17:14;20.70;77.00
29729;DHT22;20055;51.498;11.960;2022-07-06T11:20:09;20.90;76.70
29729;DHT22;20055;51.498;11.960;2022-07-06T11:22:37;21.00;75.60
29729;DHT22;20055;51.498;11.960;2022-07-06T11:25:05;20.60;75.60
29729;DHT22;20055;51.498;11.960;2022-07-06T11:27:32;20.60;76.40
29729;DHT22;20055;51.498;11.960;2022-07-06T11:30:00;20.50;75.90
29729;DHT22;20055;51.498;11.960;2022-07-06T11:32:27;20.80;74.40
29729;DHT22;20055;51.498;11.960;2022-07-06T11:34:53;20.70;73.90
29729;DHT22;20055;51.498;11.960;2022-07-06T11:37:20;20.60;73.50
29729;DHT22;20055;51.498;11.960;2022-07-06T11:39:47;20.60;73.60
29729;DHT22;20055;51.498;11.960;2022-07-06T11:42:16;21.20;72.70
29729;DHT22;20055;51.498;11.960;2022-07-06T11:44:46;21.20;72.90
29729;DHT22;20055;51.498;11.960;2022-07-06T11:47:12;21.40;72.60
29729;DHT22;20055;51.498;11.960;2022-07-06T11:49:40;21.50;71.90
29729;DHT22;20055;51.498;11.960;2022-07-06T11:52:12;21.40;71.80
29729;DHT22;20055;51.498;11.960;2022-07-06T11:54:39;21.10;72.00
29729;DHT22;20055;51.498;11.960;2022-07-06T11:57:08;21.00;71.70
29729;DHT22;20055;51.498;11.960;2022-07-06T11:59:36;20.90;71.90
29729;DHT22;20055;51.498;11.960;2022-07-06T12:02:04;21.20;72.10
29729;DHT22;20055;51.498;11.960;2022-07-06T12:04:32;21.20;71.90
29729;DHT22;20055;51.498;11.960;2022-07-06T12:07:08;21.40;71.80
29729;DHT22;20055;51.498;11.960;2022-07-06T12:09:36;21.60;70.70
29729;DHT22;20055;51.498;11.960;2022-07-06T12:12:03;21.90;72.10
29729;DHT22;20055;51.498;11.960;2022-07-06T12:14:32;21.80;71.50
29729;DHT22;20055;51.498;11.960;2022-07-06T12:17:03;21.80;71.10
29729;DHT22;20055;51.498;11.960;2022-07-06T12:19:30;22.00;71.90
29729;DHT22;20055;51.498;11.960;2022-07-06T12:21:56;21.70;73.60
29729;DHT22;20055;51.498;11.960;2022-07-06T12:24:24;21.60;74.50
29729;DHT22;20055;51.498;11.960;2022-07-06T12:26:52;21.60;75.00
29729;DHT22;20055;51.498;11.960;2022-07-06T12:29:19;21.60;76.40
29729;DHT22;20055;51.498;11.960;2022-07-06T12:37:10;21.50;73.70
29729;DHT22;20055;51.498;11.960;2022-07-06T12:39:46;21.30;73.20
29729;DHT22;20055;51.498;11.960;2022-07-06T12:42:17;21.50;73.50
29729;DHT22;20055;51.498;11.960;2022-07-06T12:44:49;21.90;72.10
29729;DHT22;20055;51.498;11.960;2022-07-06T12:47:20;21.70;70.90
29729;DHT22;20055;51.498;11.960;2022-07-06T12:49:47;22.00;69.90
29729;DHT22;20055;51.498;11.960;2022-07-06T12:52:14;22.60;68.80
29729;DHT22;20055;51.498;11.960;2022-07-06T12:54:45;22.40;68.30
29729;DHT22;20055;51.498;11.960;2022-07-06T13:00:06;22.30;70.70
29729;DHT22;20055;51.498;11.960;2022-07-06T13:02:33;22.20;69.40
29729;DHT22;20055;51.498;11.960;2022-07-06T13:05:10;22.10;69.40
29729;DHT22;20055;51.498;11.960;2022-07-06T13:07:39;22.00;70.30
29729;DHT22;20055;51.498;11.960;2022-07-06T13:10:11;22.40;68.70
29729;DHT22;20055;51.498;11.960;2022-07-06T13:12:38;22.20;69.80
29729;DHT22;20055;51.498;11.960;2022-07-06T13:15:08;22.10;67.60
29729;DHT22;20055;51.498;11.960;2022-07-06T13:17:36;22.00;68.40
29729;DHT22;20055;51.498;11.960;2022-07-06T13:20:04;22.00;69.30
29729;DHT22;20055;51.498;11.960;2022-07-06T13:22:30;22.10;69.60
29729;DHT22;20055;51.498;11.960;2022-07-06T13:24:57;22.20;69.30
29729;DHT22;20055;51.498;11.960;2022-07-06T13:27:23;22.10;69.00
29729;DHT22;20055;51.498;11.960;2022-07-06T13:29:49;21.60;69.80
29729;DHT22;20055;51.498;11.960;2022-07-06T13:32:16;21.30;71.40
29729;DHT22;20055;51.498;11.960;2022-07-06T13:34:43;21.50;71.00
29729;DHT22;20055;51.498;11.960;2022-07-06T13:37:09;21.50;70.90
29729;DHT22;20055;51.498;11.960;2022-07-06T13:39:35;21.40;71.30
29729;DHT22;20055;51.498;11.960;2022-07-06T13:42:02;21.60;71.40
29729;DHT22;20055;51.498;11.960;2022-07-06T13:44:28;21.40;71.20
29729;DHT22;20055;51.498;11.960;2022-07-06T13:46:54;21.50;71.70
29729;DHT22;20055;51.498;11.960;2022-07-06T13:49:21;21.30;71.50
29729;DHT22;20055;51.498;11.960;2022-07-06T13:51:47;21.20;72.60
29729;DHT22;20055;51.498;11.960;2022-07-06T13:54:13;20.80;74.10
29729;DHT22;20055;51.498;11.960;2022-07-06T13:56:40;20.70;74.80
29729;DHT22;20055;51.498;11.960;2022-07-06T13:59:07;20.70;74.90
29729;DHT22;20055;51.498;11.960;2022-07-06T14:01:33;20.70;73.60
29729;DHT22;20055;51.498;11.960;2022-07-06T14:03:59;20.50;74.10
29729;DHT22;20055;51.498;11.960;2022-07-06T14:06:26;20.50;74.70
29729;DHT22;20055;51.498;11.960;2022-07-06T14:08:52;20.50;74.50
29729;DHT22;20055;51.498;11.960;2022-07-06T14:11:18;20.80;74.20
29729;DHT22;20055;51.498;11.960;2022-07-06T14:13:44;21.10;72.50
29729;DHT22;20055;51.498;11.960;2022-07-06T14:16:11;21.00;71.90
29729;DHT22;20055;51.498;11.960;2022-07-06T14:18:37;21.20;72.40
29729;DHT22;20055;51.498;11.960;2022-07-06T14:21:04;21.60;71.60
29729;DHT22;20055;51.498;11.960;2022-07-06T14:23:30;21.80;71.10
29729;DHT22;20055;51.498;11.960;2022-07-06T14:25:58;22.00;70.70
29729;DHT22;20055;51.498;11.960;2022-07-06T14:28:24;21.40;70.00
29729;DHT22;20055;51.498;11.960;2022-07-06T14:30:51;21.40;70.10
29729;DHT22;20055;51.498;11.960;2022-07-06T14:33:17;21.80;69.20
29729;DHT22;20055;51.498;11.960;2022-07-06T14:35:47;22.10;68.60
29729;DHT22;20055;51.498;11.960;2022-07-06T14:38:20;22.00;68.90
29729;DHT22;20055;51.498;11.960;2022-07-06T14:40:47;21.60;68.90
29729;DHT22;20055;51.498;11.960;2022-07-06T14:43:15;21.20;70.60
29729;DHT22;20055;51.498;11.960;2022-07-06T14:45:43;21.00;70.70
29729;DHT22;20055;51.498;11.960;2022-07-06T14:48:11;21.20;71.20
29729;DHT22;20055;51.498;11.960;2022-07-06T14:50:37;21.10;69.90
29729;DHT22;20055;51.498;11.960;2022-07-06T14:53:03;20.80;69.80
29729;DHT22;20055;51.498;11.960;2022-07-06T14:55:30;20.80;70.90
29729;DHT22;20055;51.498;11.960;2022-07-06T14:57:57;20.80;71.20
29729;DHT22;20055;51.498;11.960;2022-07-06T15:00:23;20.90;70.20
29729;DHT22;20055;51.498;11.960;2022-07-06T15:02:50;20.70;70.20
29729;DHT22;20055;51.498;11.960;2022-07-06T15:05:16;20.80;70.40
29729;DHT22;20055;51.498;11.960;2022-07-06T15:07:42;20.90;70.40
29729;DHT22;20055;51.498;11.960;2022-07-06T15:10:09;21.10;70.00
29729;DHT22;20055;51.498;11.960;2022-07-06T15:12:36;21.20;69.40
29729;DHT22;20055;51.498;11.960;2022-07-06T15:15:03;21.30;68.70
29729;DHT22;20055;51.498;11.960;2022-07-06T15:17:29;21.30;68.40
29729;DHT22;20055;51.498;11.960;2022-07-06T15:19:59;21.40;68.10
29729;DHT22;20055;51.498;11.960;2022-07-06T15:22:25;21.30;68.30
29729;DHT22;20055;51.498;11.960;2022-07-06T15:24:51;21.20;68.20
29729;DHT22;20055;51.498;11.960;2022-07-06T15:27:17;21.20;69.50
29729;DHT22;20055;51.498;11.960;2022-07-06T15:29:44;21.10;69.20
29729;DHT22;20055;51.498;11.960;2022-07-06T15:32:10;21.10;70.60